If you wish to contribute or participate in the discussions about articles you are invited to join SKYbrary as a registered user

 Actions

Ayatollah Hashemi Rafsanjani International Airport

From SKYbrary Wiki

OIKK
Airport
ICAO: OIKK – IATA: KER
Summary
Name Ayatollah Hashemi Rafsanjani International Airport
Region Middle East
Territory Iran IR.gif
Location Kerman, Kerman Province
Serving Kerman
Elevation 1,749.857 m
5,741 ft1,749.857 m
Coordinates 30° 15' 31.82" N, 56° 57' 41.92" E
Runways
Designator Length Width Surface ROPS
5/23 2029 m6,656.824 ft
45 m147.638 ft
ASP yes/yes
16/34 3847 m12,621.391 ft
45 m147.638 ft
ASP yes/yes


METAR
Observation OIKK 161400Z 33012KT CAVOK 21/M18 Q1017 A3006
Station Kerman
Date/Time 16 April 2019 14:00:00
Wind direction 330°
Wind speed 12 kts
Lowest cloud amount clouds and visibility OK
Temperature 21°C
Dew point
Humidity 5%
QNH 1017 hPa
Weather condition n/a

Also known as Kerman International Airport. The airport is 10km5.4 nm
10,000 m
32,808.399 ft
west of the city of Kerman, Iran.

Climatology

Cold semi-arid climate (Köppen climate classification Bsh).

Maps

Terrain

Loading map...

Airport Layout

Loading map...


Accidents & Serious Incidents at or in vicinity of OIKK

None on SKYbrary